Time;durP1;ratioP1;P1;durP2;ratioP2;P2;SDS_P1;SDS_P2;PMS_P1;PMS_P2;Temp;Humidity;BMP_temperature;BMP_pressure;BME280_temperature;BME280_humidity;BME280_pressure;Samples;Min_cycle;Max_cycle;Signal;HPM_P1;HPM_P2
2023/04/23 00:00:11;;;;;;;9.65;1.88;;;;;;;16.58;39.48;100361.19;5034082;28;20048;-71
2023/04/23 00:02:37;;;;;;;7.88;2.10;;;;;;;16.35;39.41;100346.72;5033464;28;20022;-71
2023/04/23 00:05:05;;;;;;;7.45;2.20;;;;;;;16.44;39.13;100345.25;5033180;28;20477;-71
2023/04/23 00:07:32;;;;;;;11.20;1.95;;;;;;;16.54;39.16;100330.16;5031888;28;20029;-71
2023/04/23 00:09:58;;;;;;;8.60;2.15;;;;;;;16.71;38.86;100341.81;5033926;28;20029;-71
2023/04/23 00:12:24;;;;;;;11.93;2.10;;;;;;;16.69;38.70;100333.09;5033938;28;20041;-71
2023/04/23 00:14:52;;;;;;;5.95;2.00;;;;;;;16.75;38.79;100321.25;5042542;28;20059;-72
2023/04/23 00:17:18;;;;;;;7.85;1.80;;;;;;;16.74;38.64;100316.84;5042344;28;20488;-71
2023/04/23 00:19:44;;;;;;;6.78;2.25;;;;;;;16.60;38.65;100300.09;5040990;28;20033;-72
2023/04/23 00:22:10;;;;;;;5.35;1.98;;;;;;;16.68;38.41;100302.38;5024232;28;20028;-71
2023/04/23 00:24:37;;;;;;;8.77;2.33;;;;;;;16.69;38.41;100305.94;5040869;28;20037;-71
2023/04/23 00:27:03;;;;;;;7.15;2.42;;;;;;;16.70;38.53;100302.13;5040509;28;20053;-72
2023/04/23 00:29:28;;;;;;;12.70;2.40;;;;;;;16.80;38.36;100291.44;5040308;28;20028;-71
2023/04/23 00:31:54;;;;;;;4.25;2.28;;;;;;;16.70;38.21;100272.25;5041296;28;20030;-71
2023/04/23 00:34:19;;;;;;;6.38;2.53;;;;;;;16.73;37.82;100277.19;5045802;28;20029;-72
2023/04/23 00:36:45;;;;;;;11.25;2.42;;;;;;;16.78;38.10;100279.97;5019432;28;20057;-72
2023/04/23 00:39:10;;;;;;;13.95;2.30;;;;;;;16.84;37.68;100287.13;5041579;28;20026;-71
2023/04/23 00:41:36;;;;;;;9.75;2.40;;;;;;;16.83;37.73;100281.97;5039493;28;20017;-72
2023/04/23 00:44:02;;;;;;;8.30;2.30;;;;;;;16.78;37.94;100269.13;5024151;28;20021;-71
2023/04/23 00:46:27;;;;;;;6.78;2.50;;;;;;;16.80;37.43;100286.00;5024665;28;20034;-71
2023/04/23 00:48:54;;;;;;;5.72;2.30;;;;;;;16.95;37.65;100306.28;5042063;28;20036;-72
2023/04/23 00:51:20;;;;;;;8.55;2.45;;;;;;;16.97;37.40;100321.25;5042015;28;20123;-72
2023/04/23 00:53:46;;;;;;;5.22;2.40;;;;;;;16.99;37.80;100318.31;5038040;28;20029;-71
2023/04/23 00:56:12;;;;;;;8.18;2.25;;;;;;;16.93;39.08;100325.56;5041409;28;20039;-71
2023/04/23 00:58:38;;;;;;;3.65;2.35;;;;;;;16.77;40.47;100329.97;5039719;28;20112;-71
2023/04/23 01:01:04;;;;;;;3.70;2.25;;;;;;;16.72;41.82;100342.63;5040532;28;20413;-71
2023/04/23 01:03:31;;;;;;;4.97;2.67;;;;;;;16.49;44.49;100344.50;5041425;28;20034;-71
2023/04/23 01:05:57;;;;;;;10.07;2.67;;;;;;;16.21;46.75;100329.13;5040023;28;20027;-71
2023/04/23 01:08:24;;;;;;;8.32;3.10;;;;;;;16.05;48.30;100321.81;5041137;28;20032;-71
2023/04/23 01:10:49;;;;;;;6.75;2.60;;;;;;;15.73;49.82;100316.97;5043001;28;20087;-71
2023/04/23 01:13:15;;;;;;;7.45;2.60;;;;;;;15.52;50.27;100308.44;5043114;28;20025;-71
2023/04/23 01:15:42;;;;;;;9.50;2.78;;;;;;;15.48;50.98;100301.84;5040686;28;20037;-71
2023/04/23 01:18:08;;;;;;;5.10;2.80;;;;;;;15.45;51.52;100298.81;5040246;28;20063;-71
2023/04/23 01:20:34;;;;;;;4.63;2.88;;;;;;;15.20;52.07;100267.47;5044930;28;20077;-70
2023/04/23 01:23:02;;;;;;;6.22;2.50;;;;;;;15.08;51.92;100282.13;5048137;28;20184;-71
2023/04/23 01:25:27;;;;;;;8.75;2.85;;;;;;;15.01;52.14;100263.31;5043467;28;20029;-71
2023/04/23 01:27:53;;;;;;;5.00;2.80;;;;;;;15.29;52.62;100295.00;5045386;28;20028;-71
2023/04/23 01:30:20;;;;;;;3.80;2.30;;;;;;;15.21;52.60;100289.97;5043404;28;20053;-70
2023/04/23 01:32:47;;;;;;;6.40;2.78;;;;;;;15.11;52.85;100289.78;5041523;28;20378;-71
2023/04/23 01:35:13;;;;;;;3.88;2.50;;;;;;;15.04;52.29;100292.63;5040810;28;20033;-71
2023/04/23 01:37:38;;;;;;;3.70;2.60;;;;;;;15.09;51.94;100291.88;5040481;28;20117;-72
2023/04/23 01:40:06;;;;;;;3.42;2.20;;;;;;;15.12;51.75;100281.38;5039131;28;20029;-70
2023/04/23 01:42:32;;;;;;;4.85;2.40;;;;;;;15.08;51.79;100282.13;5023682;28;20104;-70
2023/04/23 01:44:57;;;;;;;2.72;2.08;;;;;;;15.08;51.99;100287.53;5039919;28;20053;-71
2023/04/23 01:47:23;;;;;;;3.28;2.25;;;;;;;15.08;51.81;100282.13;5023054;28;20037;-71
2023/04/23 01:49:49;;;;;;;8.40;2.47;;;;;;;15.04;51.81;100274.47;5040948;28;20088;-71
2023/04/23 01:52:14;;;;;;;4.88;2.22;;;;;;;15.08;51.78;100265.88;5042356;28;20021;-71
2023/04/23 01:54:40;;;;;;;4.03;2.30;;;;;;;15.08;52.14;100272.09;5042172;28;20105;-71
2023/04/23 01:57:05;;;;;;;5.32;2.33;;;;;;;14.99;51.53;100268.94;5040988;28;20083;-71
2023/04/23 01:59:30;;;;;;;8.73;2.30;;;;;;;14.97;52.25;100265.69;5041884;28;20025;-71
2023/04/23 02:01:56;;;;;;;3.45;2.40;;;;;;;14.86;52.39;100252.97;5040121;28;20026;-71
2023/04/23 02:04:21;;;;;;;5.63;2.20;;;;;;;14.89;51.68;100262.50;5042401;28;20037;-71
2023/04/23 02:06:49;;;;;;;4.28;2.10;;;;;;;14.89;51.77;100259.81;5035136;28;20092;-71
2023/04/23 02:09:15;;;;;;;4.03;2.13;;;;;;;14.87;51.92;100261.94;5042346;28;20026;-71
2023/04/23 02:11:40;;;;;;;6.22;2.30;;;;;;;14.73;52.00;100243.25;5040807;28;20036;-71
2023/04/23 02:14:07;;;;;;;3.50;2.17;;;;;;;14.80;52.09;100243.09;5038493;28;20033;-71
2023/04/23 02:16:33;;;;;;;3.95;2.00;;;;;;;14.85;51.74;100240.50;5039851;28;20037;-71
2023/04/23 02:18:59;;;;;;;4.15;2.30;;;;;;;14.72;52.15;100238.91;5040279;28;20026;-70
2023/04/23 02:21:26;;;;;;;4.75;2.30;;;;;;;14.83;52.52;100239.91;5005215;28;20032;-70
2023/04/23 02:23:52;;;;;;;3.53;2.30;;;;;;;14.83;53.03;100237.19;5038365;28;20040;-70
2023/04/23 02:26:17;;;;;;;6.10;2.40;;;;;;;14.79;53.03;100242.28;5038026;28;20025;-70
2023/04/23 02:28:43;;;;;;;4.35;2.33;;;;;;;14.82;52.59;100221.22;5036141;28;20033;-71
2023/04/23 02:31:09;;;;;;;4.25;2.50;;;;;;;14.85;53.08;100229.66;5038307;28;20403;-70
2023/04/23 02:33:34;;;;;;;5.60;2.30;;;;;;;14.74;52.95;100217.81;5019475;28;20026;-71
2023/04/23 02:36:00;;;;;;;5.97;2.40;;;;;;;14.70;53.55;100219.38;5021710;28;20049;-71
2023/04/23 02:38:25;;;;;;;4.07;2.55;;;;;;;14.46;53.69;100187.97;5039613;28;20036;-71
2023/04/23 02:40:51;;;;;;;2.92;2.03;;;;;;;14.55;53.57;100200.91;5022089;28;20029;-71
2023/04/23 02:43:17;;;;;;;2.70;2.30;;;;;;;14.64;53.81;100214.09;5038746;28;20036;-71
2023/04/23 02:45:43;;;;;;;4.15;2.20;;;;;;;14.48;54.72;100208.31;5019697;28;20063;-70
2023/04/23 02:48:09;;;;;;;3.05;2.10;;;;;;;14.41;54.61;100185.19;5036139;28;20040;-70
2023/04/23 02:50:38;;;;;;;4.32;2.20;;;;;;;14.47;54.73;100195.88;4999024;28;20029;-70
2023/04/23 02:53:04;;;;;;;6.93;2.33;;;;;;;14.56;55.10;100191.72;5038123;28;20025;-71
2023/04/23 02:55:30;;;;;;;5.30;2.10;;;;;;;14.56;54.52;100194.44;5037978;28;20026;-71
2023/04/23 02:57:57;;;;;;;3.15;2.22;;;;;;;14.44;55.07;100179.28;5039101;28;20017;-70
2023/04/23 03:00:23;;;;;;;3.05;2.03;;;;;;;14.47;55.31;100185.03;5038904;28;20021;-70
2023/04/23 03:02:49;;;;;;;4.40;2.38;;;;;;;14.51;55.59;100188.13;5038933;28;20349;-70
2023/04/23 03:05:14;;;;;;;4.10;1.95;;;;;;;14.50;55.46;100197.25;5040443;28;20029;-70
2023/04/23 03:07:40;;;;;;;5.68;2.40;;;;;;;14.43;55.88;100169.50;5022985;28;20030;-70
2023/04/23 03:10:07;;;;;;;2.70;2.05;;;;;;;14.41;56.65;100152.69;5038028;28;20033;-70
2023/04/23 03:12:32;;;;;;;5.43;2.50;;;;;;;14.34;58.17;100167.19;5034734;28;20029;-70
2023/04/23 03:14:58;;;;;;;5.85;2.40;;;;;;;14.31;58.06;100164.13;5035998;28;20476;-70
2023/04/23 03:17:23;;;;;;;4.28;2.42;;;;;;;14.30;58.70;100154.34;5037748;28;20041;-70
2023/04/23 03:19:49;;;;;;;3.30;2.20;;;;;;;14.23;58.92;100156.38;5020685;28;20048;-69
2023/04/23 03:22:14;;;;;;;3.85;2.20;;;;;;;14.04;59.80;100126.78;5040218;28;20036;-71
2023/04/23 03:24:40;;;;;;;4.05;2.42;;;;;;;14.22;60.06;100144.72;5042784;28;20033;-70
2023/04/23 03:27:05;;;;;;;7.97;2.42;;;;;;;14.10;59.85;100130.41;5025233;28;20063;-70
2023/04/23 03:29:30;;;;;;;4.47;2.30;;;;;;;14.11;60.78;100137.47;5042546;28;20113;-70
2023/04/23 03:31:56;;;;;;;5.63;2.60;;;;;;;14.07;60.33;100125.47;5042173;28;20044;-70
2023/04/23 03:34:21;;;;;;;6.03;2.50;;;;;;;14.25;60.87;100146.97;5042551;28;20097;-70
2023/04/23 03:36:47;;;;;;;3.35;2.10;;;;;;;14.18;61.01;100123.81;5042655;28;20076;-70
2023/04/23 03:39:13;;;;;;;6.22;2.80;;;;;;;13.77;62.49;100110.22;5042420;28;20025;-70
2023/04/23 03:41:39;;;;;;;4.15;2.72;;;;;;;13.99;62.07;100115.84;5025320;28;20294;-70
2023/04/23 03:44:04;;;;;;;4.00;2.53;;;;;;;14.10;61.88;100111.47;5041022;28;20025;-70
2023/04/23 03:46:30;;;;;;;4.28;2.80;;;;;;;13.95;63.23;100117.38;5040812;28;20038;-72
2023/04/23 03:48:55;;;;;;;6.20;2.70;;;;;;;13.92;62.67;100098.13;5042083;28;20501;-70
2023/04/23 03:51:21;;;;;;;4.68;2.95;;;;;;;14.00;63.47;100125.59;5023831;28;20056;-70
2023/04/23 03:53:47;;;;;;;4.20;2.90;;;;;;;14.00;63.28;100106.66;5040519;28;20057;-70
2023/04/23 03:56:12;;;;;;;3.78;2.92;;;;;;;13.83;64.19;100100.34;5041768;28;20496;-70
2023/04/23 03:58:37;;;;;;;3.55;2.92;;;;;;;13.90;64.28;100109.16;5041899;28;20126;-70
2023/04/23 04:01:03;;;;;;;5.47;2.90;;;;;;;13.85;64.83;100109.88;5046606;28;20033;-71
2023/04/23 04:03:29;;;;;;;6.80;3.20;;;;;;;13.78;65.85;100105.66;5052029;28;20105;-70
2023/04/23 04:05:54;;;;;;;5.50;3.50;;;;;;;13.78;66.08;100111.06;5039919;28;20037;-69
2023/04/23 04:08:21;;;;;;;5.38;3.15;;;;;;;13.70;67.23;100112.25;5039437;28;20039;-70
2023/04/23 04:10:46;;;;;;;6.78;3.83;;;;;;;13.63;68.13;100106.13;5023492;28;20037;-70
2023/04/23 04:13:12;;;;;;;8.02;3.92;;;;;;;13.70;68.26;100117.66;5038871;28;20040;-70
2023/04/23 04:15:37;;;;;;;4.97;3.30;;;;;;;13.67;69.12;100111.88;5039733;28;20539;-70
2023/04/23 04:18:03;;;;;;;5.13;3.55;;;;;;;13.60;70.22;100110.13;5040538;28;20029;-70
2023/04/23 04:20:28;;;;;;;5.63;4.00;;;;;;;13.59;69.99;100092.28;5023743;28;20060;-70
2023/04/23 04:22:55;;;;;;;7.10;3.83;;;;;;;13.51;70.57;100100.75;5023484;28;20026;-70
2023/04/23 04:25:23;;;;;;;6.00;3.95;;;;;;;13.43;71.31;100097.56;5041474;28;20083;-70
2023/04/23 04:27:49;;;;;;;5.30;3.85;;;;;;;13.45;71.84;100100.88;5039042;28;20040;-70
2023/04/23 04:30:15;;;;;;;5.88;3.88;;;;;;;13.47;71.94;100088.75;5023203;28;20030;-71
2023/04/23 04:32:42;;;;;;;4.70;3.78;;;;;;;13.46;72.32;100097.91;5040165;28;20040;-70
2023/04/23 04:35:07;;;;;;;5.82;3.70;;;;;;;13.40;72.79;100090.75;5040116;28;20091;-70
2023/04/23 04:37:34;;;;;;;4.32;3.90;;;;;;;13.37;73.32;100088.50;5039507;28;20400;-71
2023/04/23 04:40:00;;;;;;;6.38;3.92;;;;;;;13.37;73.80;100083.09;5038919;28;20029;-71
2023/04/23 04:42:26;;;;;;;7.03;4.40;;;;;;;13.27;73.94;100066.66;5038793;28;20504;-71
2023/04/23 04:44:51;;;;;;;7.15;3.80;;;;;;;13.30;74.32;100066.19;5037729;28;20034;-71
2023/04/23 04:47:17;;;;;;;5.43;3.88;;;;;;;13.22;75.18;100058.44;5039828;28;20485;-70
2023/04/23 04:49:43;;;;;;;4.68;3.90;;;;;;;13.30;74.99;100071.59;5043335;28;20077;-72
2023/04/23 04:52:09;;;;;;;7.20;3.75;;;;;;;13.34;75.00;100076.31;5052249;28;20164;-70
2023/04/23 04:54:35;;;;;;;5.35;3.83;;;;;;;13.31;75.44;100062.44;5037262;28;20052;-70
2023/04/23 04:57:01;;;;;;;7.75;3.85;;;;;;;13.27;75.36;100059.38;5035996;28;20033;-71
2023/04/23 04:59:26;;;;;;;5.57;3.70;;;;;;;13.41;75.60;100062.69;5038122;28;20435;-71
2023/04/23 05:01:52;;;;;;;5.38;3.70;;;;;;;13.47;75.76;100064.41;5037993;28;20034;-71
2023/04/23 05:04:17;;;;;;;8.32;3.85;;;;;;;13.47;76.06;100077.94;5037120;28;20048;-71
2023/04/23 05:06:43;;;;;;;8.25;3.95;;;;;;;13.47;76.42;100071.72;5039634;28;20056;-71
2023/04/23 05:09:09;;;;;;;6.40;3.90;;;;;;;13.51;76.33;100073.72;5037312;28;20033;-70
2023/04/23 05:11:34;;;;;;;5.43;4.05;;;;;;;13.54;76.77;100083.22;5038522;28;20095;-71
2023/04/23 05:14:00;;;;;;;4.95;4.13;;;;;;;13.40;76.93;100061.84;5039374;28;20424;-70
2023/04/23 05:16:25;;;;;;;4.88;4.10;;;;;;;13.57;77.24;100086.25;5040326;28;20396;-70
2023/04/23 05:18:51;;;;;;;5.50;4.22;;;;;;;13.60;77.30;100088.50;5038917;28;20041;-70
2023/04/23 05:21:18;;;;;;;7.22;4.43;;;;;;;13.58;77.59;100085.22;5022257;28;20032;-71
2023/04/23 05:23:43;;;;;;;6.45;4.68;;;;;;;13.56;78.29;100087.34;5040006;28;20054;-71
2023/04/23 05:26:09;;;;;;;5.80;4.53;;;;;;;13.54;78.86;100094.03;5039435;28;20476;-70
2023/04/23 05:28:35;;;;;;;10.52;5.45;;;;;;;13.55;79.17;100090.28;5040266;28;20052;-71
2023/04/23 05:31:00;;;;;;;7.00;5.00;;;;;;;13.54;79.78;100086.78;5041477;28;20073;-71
2023/04/23 05:33:27;;;;;;;10.88;5.95;;;;;;;13.53;80.05;100082.41;5040247;28;20025;-70
2023/04/23 05:35:53;;;;;;;12.02;5.32;;;;;;;13.55;80.37;100096.50;5038938;28;20045;-70
2023/04/23 05:38:19;;;;;;;8.35;5.25;;;;;;;13.49;81.00;100091.22;5044560;28;20040;-71
2023/04/23 05:40:44;;;;;;;10.50;5.32;;;;;;;13.43;81.61;100092.97;5052922;28;20021;-71
2023/04/23 05:43:10;;;;;;;9.93;6.28;;;;;;;13.45;82.14;100101.69;5021976;28;20060;-70
2023/04/23 05:45:36;;;;;;;11.00;5.70;;;;;;;13.33;83.43;100087.34;5036488;28;20117;-71
2023/04/23 05:48:01;;;;;;;14.25;6.65;;;;;;;13.37;83.65;100083.09;5037433;28;20041;-70
2023/04/23 05:50:27;;;;;;;10.02;6.32;;;;;;;13.37;83.50;100077.69;5023513;28;20025;-71
2023/04/23 05:52:52;;;;;;;12.75;6.95;;;;;;;13.28;84.13;100074.56;5023333;28;20032;-71
2023/04/23 05:55:19;;;;;;;14.00;6.95;;;;;;;13.36;83.93;100067.97;5039271;28;20507;-70
2023/04/23 05:57:45;;;;;;;12.07;7.20;;;;;;;13.34;84.33;100065.50;5038869;28;20036;-69
2023/04/23 06:00:11;;;;;;;14.57;7.55;;;;;;;13.25;84.79;100071.50;5021935;28;20026;-69
2023/04/23 06:02:38;;;;;;;13.27;7.40;;;;;;;13.21;85.31;100051.34;5037891;28;20032;-71
2023/04/23 06:05:04;;;;;;;12.82;6.43;;;;;;;13.18;85.49;100049.97;5023238;28;20025;-70
2023/04/23 06:07:30;;;;;;;13.10;7.00;;;;;;;13.30;85.80;100061.59;5036934;28;20025;-71
2023/04/23 06:09:56;;;;;;;16.83;7.25;;;;;;;13.32;85.97;100078.41;5037096;28;20048;-69
2023/04/23 06:12:21;;;;;;;12.63;7.78;;;;;;;13.33;85.99;100085.47;5038208;28;20030;-70
2023/04/23 06:14:46;;;;;;;12.63;7.25;;;;;;;13.24;86.79;100080.59;5021077;28;20033;-68
2023/04/23 06:17:12;;;;;;;10.82;7.95;;;;;;;13.24;87.25;100078.75;5039173;28;20025;-71
2023/04/23 06:19:38;;;;;;;12.65;7.88;;;;;;;13.28;87.33;100073.72;5035206;28;20029;-71
2023/04/23 06:22:04;;;;;;;16.27;7.70;;;;;;;13.28;87.99;100065.63;5019909;28;20033;-72
2023/04/23 06:24:30;;;;;;;15.63;7.55;;;;;;;13.21;88.05;100063.00;5020035;28;20368;-72
2023/04/23 06:26:56;;;;;;;10.90;7.25;;;;;;;13.36;88.08;100076.06;5020059;28;20095;-72
2023/04/23 06:29:22;;;;;;;17.70;8.13;;;;;;;13.19;88.67;100061.59;5038471;28;20085;-72
2023/04/23 06:31:47;;;;;;;12.68;7.72;;;;;;;13.25;89.30;100079.59;5038792;28;20480;-71
2023/04/23 06:34:13;;;;;;;16.83;7.72;;;;;;;13.26;89.12;100082.06;5033313;28;20041;-70
2023/04/23 06:36:38;;;;;;;14.85;7.43;;;;;;;13.26;89.44;100076.66;5007928;28;20084;-70
2023/04/23 06:39:04;;;;;;;17.83;7.38;;;;;;;13.22;89.62;100069.22;5017563;28;20114;-71
2023/04/23 06:41:29;;;;;;;17.60;7.75;;;;;;;13.31;89.33;100068.69;5030943;28;20036;-72
2023/04/23 06:43:55;;;;;;;17.48;8.05;;;;;;;13.29;90.03;100069.97;5005457;28;20025;-72
2023/04/23 06:46:20;;;;;;;18.52;8.48;;;;;;;13.26;90.20;100051.53;5039131;28;20026;-71
2023/04/23 06:48:46;;;;;;;18.05;7.90;;;;;;;13.43;90.06;100060.56;5040236;28;20037;-71
2023/04/23 06:51:11;;;;;;;13.95;7.90;;;;;;;13.43;90.33;100057.03;5040093;28;20041;-71
2023/04/23 06:53:37;;;;;;;19.38;8.13;;;;;;;13.48;90.50;100063.38;5037302;28;20038;-72
2023/04/23 06:56:02;;;;;;;21.33;8.50;;;;;;;13.50;90.48;100068.53;5022326;28;20029;-72
2023/04/23 06:58:31;;;;;;;17.85;8.30;;;;;;;13.50;90.82;100058.53;5021695;28;20124;-72
2023/04/23 07:01:02;;;;;;;22.98;8.80;;;;;;;13.61;90.94;100062.31;5034804;28;20087;-72
2023/04/23 07:03:28;;;;;;;21.33;8.93;;;;;;;13.57;90.93;100055.72;5036508;28;20021;-72
2023/04/23 07:05:53;;;;;;;21.67;9.05;;;;;;;13.58;91.23;100058.19;5035217;28;20037;-72
2023/04/23 07:08:21;;;;;;;23.95;8.90;;;;;;;13.68;91.10;100064.88;5036396;28;20116;-72
2023/04/23 07:10:47;;;;;;;26.73;8.60;;;;;;;13.78;90.99;100076.75;5022206;28;20063;-73
2023/04/23 07:13:13;;;;;;;23.65;9.40;;;;;;;13.76;91.24;100080.72;5037176;28;20061;-71
2023/04/23 07:15:38;;;;;;;20.52;8.90;;;;;;;13.71;91.75;100072.50;5039916;28;20025;-71
2023/04/23 07:18:05;;;;;;;22.63;9.00;;;;;;;13.76;91.88;100086.13;5021423;28;20051;-72
2023/04/23 07:20:31;;;;;;;24.88;9.70;;;;;;;13.71;93.05;100078.75;5036939;28;20073;-72
2023/04/23 07:22:57;;;;;;;30.38;10.38;;;;;;;13.82;92.66;100066.25;5039494;28;20061;-72
2023/04/23 07:25:24;;;;;;;24.52;10.27;;;;;;;13.93;92.36;100073.53;5043449;28;20029;-72
2023/04/23 07:27:49;;;;;;;26.20;11.50;;;;;;;13.83;92.55;100048.97;5038234;28;20128;-72
2023/04/23 07:30:16;;;;;;;22.00;11.63;;;;;;;14.04;92.69;100075.38;5039094;28;20049;-73
2023/04/23 07:32:42;;;;;;;27.23;12.63;;;;;;;13.99;93.44;100077.97;5037463;28;20398;-71
2023/04/23 07:35:09;;;;;;;26.63;12.75;;;;;;;14.02;93.40;100069.38;5039156;28;20036;-73
2023/04/23 07:37:35;;;;;;;29.40;13.18;;;;;;;14.04;93.46;100075.38;5038692;28;20072;-73
2023/04/23 07:40:01;;;;;;;29.55;13.15;;;;;;;13.98;94.20;100081.75;5038091;28;20057;-71
2023/04/23 07:42:27;;;;;;;24.55;13.15;;;;;;;13.93;94.93;100080.81;5042336;28;20026;-72
2023/04/23 07:44:52;;;;;;;26.83;13.52;;;;;;;14.00;94.09;100081.50;5038947;28;20116;-72
2023/04/23 07:47:18;;;;;;;27.85;13.40;;;;;;;14.03;94.48;100081.84;5038134;28;20060;-72
2023/04/23 07:49:43;;;;;;;31.00;15.00;;;;;;;14.08;94.35;100079.25;5037502;28;20029;-72
2023/04/23 07:52:09;;;;;;;31.08;16.25;;;;;;;14.23;94.10;100080.59;5034693;28;20044;-72
2023/04/23 07:54:34;;;;;;;30.80;17.73;;;;;;;14.37;94.19;100092.81;5038565;28;20081;-72
2023/04/23 07:57:00;;;;;;;34.78;18.95;;;;;;;14.45;93.94;100083.47;5042155;28;20018;-72
2023/04/23 07:59:25;;;;;;;36.95;18.85;;;;;;;14.66;93.10;100090.09;5038687;28;20031;-72
2023/04/23 08:01:51;;;;;;;34.50;19.42;;;;;;;14.72;94.01;100089.94;5022847;28;20037;-72
2023/04/23 08:04:16;;;;;;;44.58;23.10;;;;;;;14.71;94.27;100088.31;5043824;28;20030;-71
2023/04/23 08:06:42;;;;;;;34.05;21.67;;;;;;;14.82;94.93;100085.78;5026736;28;20061;-71
2023/04/23 08:09:08;;;;;;;38.28;23.40;;;;;;;14.94;94.82;100090.06;5051752;28;20088;-71
2023/04/23 08:11:33;;;;;;;37.33;25.33;;;;;;;14.93;95.14;100096.56;5031019;28;20159;-72
2023/04/23 08:14:00;;;;;;;40.03;26.98;;;;;;;14.95;95.43;100099.81;5040745;28;20125;-72
2023/04/23 08:16:26;;;;;;;38.97;26.30;;;;;;;15.06;95.19;100097.28;5043643;28;20040;-72
2023/04/23 08:18:51;;;;;;;46.60;28.27;;;;;;;14.68;95.74;100056.31;5041730;28;20038;-72
2023/04/23 08:21:17;;;;;;;43.67;27.92;;;;;;;14.88;95.41;100085.63;5046883;28;20120;-72
2023/04/23 08:23:42;;;;;;;38.20;28.25;;;;;;;14.68;96.86;100093.41;5047909;28;20036;-72
2023/04/23 08:26:09;;;;;;;39.47;29.73;;;;;;;14.67;96.60;100086.31;5046494;28;20018;-72
2023/04/23 08:28:35;;;;;;;42.55;29.63;;;;;;;14.64;96.81;100109.31;5026112;28;20421;-72
2023/04/23 08:31:01;;;;;;;40.13;27.52;;;;;;;14.39;97.49;100104.19;5022293;28;20048;-73
2023/04/23 08:33:26;;;;;;;34.20;26.15;;;;;;;14.36;97.51;100109.28;5022488;28;20464;-73
2023/04/23 08:35:52;;;;;;;33.25;26.92;;;;;;;14.29;97.01;100101.28;5040273;28;20049;-72
2023/04/23 08:38:17;;;;;;;33.40;26.45;;;;;;;14.32;96.12;100098.94;5003436;28;20045;-72
2023/04/23 08:40:44;;;;;;;33.63;26.02;;;;;;;14.43;95.38;100116.19;5038777;28;20045;-72
2023/04/23 08:43:18;;;;;;;31.33;24.40;;;;;;;14.58;94.88;100121.09;5020875;28;20036;-72
2023/04/23 08:45:48;;;;;;;30.27;21.80;;;;;;;14.50;94.75;100129.56;5039222;28;20085;-72
2023/04/23 08:48:14;;;;;;;25.83;19.55;;;;;;;14.64;94.32;100124.75;5037679;28;20125;-72
2023/04/23 08:50:44;;;;;;;26.13;19.02;;;;;;;14.52;94.57;100128.31;5038385;28;20029;-72
2023/04/23 08:53:13;;;;;;;22.02;17.45;;;;;;;14.44;94.74;100122.44;5037513;28;20089;-72
2023/04/23 08:55:39;;;;;;;23.52;18.80;;;;;;;14.48;94.35;100127.13;5023956;28;20045;-71
2023/04/23 08:58:05;;;;;;;24.83;18.48;;;;;;;14.34;94.90;100132.00;5042738;28;20052;-73
2023/04/23 09:00:33;;;;;;;20.73;14.40;;;;;;;13.96;95.79;100108.22;5045687;28;20057;-72
2023/04/23 09:02:59;;;;;;;21.20;13.02;;;;;;;14.08;95.38;100144.19;5044521;28;20018;-72
2023/04/23 09:05:26;;;;;;;16.85;11.98;;;;;;;13.96;95.96;100146.06;5046484;28;20048;-72
2023/04/23 09:07:53;;;;;;;15.18;11.43;;;;;;;13.92;95.36;100146.78;5045515;28;20030;-73
2023/04/23 09:10:18;;;;;;;14.35;10.30;;;;;;;13.82;95.20;100123.88;5044918;28;20036;-73
2023/04/23 09:12:44;;;;;;;14.35;9.75;;;;;;;13.73;96.35;100149.63;5029257;28;20029;-71
2023/04/23 09:15:11;;;;;;;14.52;10.48;;;;;;;13.63;96.01;100125.88;5038117;28;20052;-72
2023/04/23 09:17:45;;;;;;;11.23;8.50;;;;;;;13.85;95.42;100153.16;5026359;28;20037;-73
2023/04/23 09:20:12;;;;;;;13.05;8.75;;;;;;;14.25;93.11;100140.72;5045004;28;20359;-73
2023/04/23 09:22:38;;;;;;;11.13;7.63;;;;;;;14.42;92.46;100133.50;5044877;28;20033;-72
2023/04/23 09:25:05;;;;;;;10.45;7.65;;;;;;;14.53;92.41;100148.06;5045634;28;20048;-73
2023/04/23 09:27:30;;;;;;;11.35;7.93;;;;;;;14.30;92.33;100103.78;5044237;28;20121;-73
2023/04/23 09:29:58;;;;;;;10.77;7.75;;;;;;;14.63;92.43;100152.88;5045837;28;20035;-73
2023/04/23 09:32:32;;;;;;;12.23;6.95;;;;;;;14.63;92.50;100153.69;5046485;28;20539;-72
2023/04/23 09:34:57;;;;;;;9.55;7.22;;;;;;;14.74;92.39;100160.13;5047203;28;20029;-72
2023/04/23 09:37:26;;;;;;;8.77;6.80;;;;;;;14.85;91.31;100158.44;5046671;28;20109;-73
2023/04/23 09:39:54;;;;;;;10.32;6.97;;;;;;;14.72;90.85;100159.53;5043149;28;20029;-72
2023/04/23 09:42:22;;;;;;;13.15;7.80;;;;;;;14.43;91.23;100132.41;5026104;28;20029;-72
2023/04/23 09:45:15;;;;;;;12.55;7.38;;;;;;;14.61;91.04;100157.72;5042279;28;20029;-72
2023/04/23 09:47:47;;;;;;;11.43;7.40;;;;;;;14.52;91.15;100166.19;5045688;28;20093;-73
2023/04/23 09:50:13;;;;;;;11.40;7.32;;;;;;;14.68;90.37;100164.63;5044619;28;20049;-73
2023/04/23 09:52:39;;;;;;;11.15;7.15;;;;;;;14.65;90.54;100156.97;5042962;28;20032;-72
2023/04/23 09:55:06;;;;;;;11.00;7.88;;;;;;;14.25;90.93;100127.19;5042087;28;20373;-72
2023/04/23 09:57:36;;;;;;;9.85;7.75;;;;;;;14.55;90.25;100164.91;5042127;28;20112;-72
2023/04/23 10:00:14;;;;;;;13.43;8.15;;;;;;;14.44;90.47;100171.16;5023301;28;20045;-72
2023/04/23 10:02:45;;;;;;;12.00;8.25;;;;;;;14.39;90.35;100176.47;5042663;28;20021;-73
2023/04/23 10:05:19;;;;;;;15.98;8.75;;;;;;;14.07;91.59;100175.00;5042317;28;20392;-73
2023/04/23 10:07:47;;;;;;;12.32;8.40;;;;;;;14.08;91.03;100165.81;5039166;28;20375;-73
2023/04/23 10:10:16;;;;;;;13.60;8.45;;;;;;;14.07;91.34;100176.88;5036005;28;20034;-72
2023/04/23 10:12:43;;;;;;;11.50;7.65;;;;;;;14.18;91.04;100172.53;5036344;28;20051;-73
2023/04/23 10:15:10;;;;;;;9.63;7.10;;;;;;;13.98;92.08;100168.31;5037355;28;20040;-71
2023/04/23 10:17:36;;;;;;;10.85;7.25;;;;;;;14.27;90.29;100174.63;5019622;28;20025;-73
2023/04/23 10:20:02;;;;;;;10.88;6.75;;;;;;;14.39;89.51;100168.34;5036298;28;20097;-72
2023/04/23 10:22:29;;;;;;;13.00;7.85;;;;;;;14.39;89.62;100182.69;5036123;28;20029;-73
2023/04/23 10:24:57;;;;;;;12.38;7.25;;;;;;;14.34;89.49;100175.31;5036513;28;20040;-72
2023/04/23 10:27:28;;;;;;;13.07;8.05;;;;;;;14.15;89.64;100154.06;5037658;28;20029;-72
2023/04/23 10:29:56;;;;;;;14.73;7.70;;;;;;;14.11;90.01;100169.94;5019855;28;20026;-73
2023/04/23 10:32:22;;;;;;;11.13;7.63;;;;;;;14.22;89.18;100173.69;5042402;28;20029;-72
2023/04/23 10:34:49;;;;;;;9.75;6.72;;;;;;;14.23;88.63;100178.84;5041832;28;20042;-73
2023/04/23 10:37:18;;;;;;;15.18;6.90;;;;;;;14.36;88.14;100180.47;5042027;28;20045;-72
2023/04/23 10:39:46;;;;;;;12.55;6.82;;;;;;;14.48;87.61;100181.25;5040246;28;20521;-73
2023/04/23 10:42:12;;;;;;;10.20;6.70;;;;;;;14.42;87.09;100182.22;5038910;28;20034;-73
2023/04/23 10:44:40;;;;;;;9.52;6.07;;;;;;;14.65;85.61;100175.94;5037393;28;20032;-72
2023/04/23 10:47:10;;;;;;;7.68;5.40;;;;;;;14.30;85.28;100160.63;5039748;28;20033;-70
2023/04/23 10:49:37;;;;;;;8.85;5.05;;;;;;;14.52;84.21;100171.63;5023245;28;20068;-72
2023/04/23 10:52:15;;;;;;;8.55;4.30;;;;;;;14.73;82.49;100172.00;5039604;28;20033;-72
2023/04/23 10:54:58;;;;;;;8.43;4.22;;;;;;;14.86;81.16;100169.00;5040068;28;20032;-73
2023/04/23 10:57:23;;;;;;;9.45;4.30;;;;;;;14.92;80.27;100172.63;5041350;28;20037;-71
2023/04/23 10:59:53;;;;;;;7.45;4.40;;;;;;;14.85;80.05;100174.69;5037695;28;20075;-72
2023/04/23 11:02:22;;;;;;;8.10;4.40;;;;;;;14.92;80.08;100175.34;5036337;28;20029;-71
2023/04/23 11:04:58;;;;;;;12.32;6.07;;;;;;;14.87;80.46;100173.38;5037051;28;20037;-71
2023/04/23 11:07:31;;;;;;;13.23;7.18;;;;;;;14.81;79.65;100174.34;5036597;28;20030;-71
2023/04/23 11:10:10;;;;;;;10.85;7.25;;;;;;;14.73;78.30;100156.56;5036305;28;20029;-71
2023/04/23 11:12:38;;;;;;;14.95;7.13;;;;;;;14.78;78.44;100174.81;5036919;28;20029;-74
2023/04/23 11:15:17;;;;;;;10.95;7.05;;;;;;;14.67;78.50;100162.13;5038176;28;20068;-72